Latest Coastal Weather Observations for Cato Island

IDQ60701

Issued at 12:03 am EST Sunday 26 June 2016 (issued every 10 minutes, with the page automatically refreshed every 10 minutes)

About coastal observations | Map of coastal stations | Coastal observations for QLD | Marine services | Other Formats
Station Details ID: 200601 Name: CATO ISLAND Lat: -23.25 Lon: 155.54 Height: 6.3 m
Data from the previous 72 hours. | See also: Recent months for locations in Queensland
Date/Time
EST
Temp
°C
Wind Pressure Rain since
9am
mm
Weather Cloud Vis
km
Sea
Height
m
Swell
Dir  Spd
kts
Gust
kts
hPa Trend Height
m
Period
s
Dir
26/12:00am 20.6 SSE 11 16 1017.7 - - - - - - - - -
 
Date/Time
EST
Temp
°C
Wind Pressure Rain since
9am
mm
Weather Cloud Vis
km
Sea
Height
m
Swell
Dir  Spd
kts
Gust
kts
hPa Trend Height
m
Period
s
Dir
25/11:30pm 20.6 SSE 12 16 1017.9 - - - - - - - - -
25/11:00pm 20.3 SSE 10 14 1017.8 - - - - - - - - -
25/10:30pm 20.3 SSE 11 15 1017.9 - - - - - - - - -
25/10:00pm 20.2 SSE 11 15 1017.7 - - - - - - - - -
25/09:30pm 20.3 SE 14 17 1017.9 - - - - - - - - -
25/09:00pm 20.0 SE 11 18 1017.8 - - - - - - - - -
25/08:30pm 19.9 SSE 11 13 1017.4 - - - - - - - - -
25/08:00pm 19.9 SSE 12 16 1017.4 - - - - - - - - -
25/07:30pm 20.0 S 12 16 1017.3 - - - - - - - - -
25/07:00pm 19.8 S 12 18 1017.1 - - - - - - - - -
25/06:30pm 20.0 S 13 18 1016.9 - - - - - - - - -
25/06:00pm 19.8 S 14 19 1016.6 - - - - - - - - -
25/05:30pm 19.7 S 12 16 1016.3 - - - - - - - - -
25/05:00pm 20.0 S 12 16 1016.0 - - - - - - - - -
25/04:30pm 20.0 SSW 13 16 1015.8 - - - - - - - - -
25/04:00pm 20.2 S 13 18 1015.4 - - - - - - - - -
25/03:30pm 20.5 S 13 16 1015.2 - - - - - - - - -
25/03:00pm 20.7 S 14 19 1015.3 - - - - - - - - -
25/02:30pm 20.8 S 13 16 1015.2 - - - - - - - - -
25/02:00pm 21.2 S 13 17 1015.2 - - - - - - - - -
25/01:30pm 21.4 S 13 18 1015.3 - - - - - - - - -
25/01:00pm 21.6 S 13 17 1015.4 - - - - - - - - -
25/12:30pm 21.6 S 14 18 1015.6 - - - - - - - - -
25/12:00pm 21.8 S 14 18 1016.0 - - - - - - - - -
25/11:30am 21.8 SSW 14 18 1016.4 - - - - - - - - -
25/11:00am 21.9 SSW 14 17 1016.7 - - - - - - - - -
25/10:30am 22.2 SW 15 19 1016.9 - - - - - - - - -
25/10:00am 21.9 SW 16 19 1017.0 - - - - - - - - -
25/09:30am 21.7 SW 17 21 1017.0 - - - - - - - - -
25/09:00am 21.6 SSW 18 21 1016.8 - - - - - - - - -
25/08:30am 21.6 SW 19 23 1016.6 - - - - - - - - -
25/08:00am 21.5 SSW 19 25 1016.4 - - - - - - - - -
25/07:30am 21.8 SW 20 24 1016.1 - - - - - - - - -
25/07:00am 21.9 SSW 21 27 1015.8 - - - - - - - - -
25/06:30am 22.2 SSW 22 26 1015.3 - - - - - - - - -
25/06:00am 22.4 SSW 23 27 1014.7 - - - - - - - - -
25/05:30am 23.0 SSW 21 25 1014.3 - - - - - - - - -
25/05:00am 23.1 SW 21 25 1013.9 - - - - - - - - -
25/04:30am 23.2 SW 18 23 1013.6 - - - - - - - - -
25/04:00am 23.4 SW 20 25 1013.5 - - - - - - - - -
25/03:30am 23.4 SW 19 23 1013.3 - - - - - - - - -
25/03:00am 23.6 SW 18 22 1013.2 - - - - - - - - -
25/02:30am 23.7 SW 21 24 1013.1 - - - - - - - - -
25/02:00am 24.1 SW 20 24 1013.3 - - - - - - - - -
25/01:30am 23.9 SW 17 20 1013.6 - - - - - - - - -
25/01:00am 23.9 SW 17 21 1013.7 - - - - - - - - -
25/12:30am 23.7 WSW 16 18 1013.8 - - - - - - - - -
25/12:00am 23.7 WSW 15 17 1013.8 - - - - - - - - -
 
Date/Time
EST
Temp
°C
Wind Pressure Rain since
9am
mm
Weather Cloud Vis
km
Sea
Height
m
Swell
Dir  Spd
kts
Gust
kts
hPa Trend Height
m
Period
s
Dir
24/11:30pm 23.6 SW 14 18 1014.0 - - - - - - - - -
24/11:00pm 23.8 WSW 17 19 1014.2 - - - - - - - - -
24/10:30pm 23.7 WSW 15 18 1014.0 - - - - - - - - -
24/10:00pm 23.7 SW 14 16 1014.1 - - - - - - - - -
24/09:30pm 23.2 SSW 12 14 1013.9 - - - - - - - - -
24/09:00pm 23.1 S 13 15 1013.9 - - - - - - - - -
24/08:30pm 23.7 WSW 15 21 1013.6 - - - - - - - - -
24/08:00pm 24.2 W 18 22 1013.5 - - - - - - - - -
24/07:30pm 24.0 WNW 20 23 1013.2 - - - - - - - - -
24/07:00pm 23.9 W 21 25 1013.0 - - - - - - - - -
24/06:30pm 24.3 WNW 19 22 1012.7 - - - - - - - - -
24/06:00pm 24.8 WNW 16 21 1012.3 - - - - - - - - -
24/05:30pm 24.8 WNW 15 18 1012.1 - - - - - - - - -
24/05:00pm 24.8 WNW 19 22 1011.8 - - - - - - - - -
24/04:30pm 24.9 NW 16 19 1011.8 - - - - - - - - -
24/04:00pm 25.1 NW 17 19 1011.5 - - - - - - - - -
24/03:30pm 25.3 WNW 17 19 1011.2 - - - - - - - - -
24/03:00pm 25.7 WNW 16 18 1011.3 - - - - - - - - -
24/02:30pm 26.1 WNW 15 18 1011.4 - - - - - - - - -
24/02:00pm 26.6 WNW 15 18 1011.6 - - - - - - - - -
24/01:30pm 26.5 WNW 16 18 1011.7 - - - - - - - - -
24/01:00pm 26.7 WNW 15 17 1012.0 - - - - - - - - -
24/12:30pm 26.3 NW 15 17 1012.3 - - - - - - - - -
24/12:00pm 26.2 NNW 14 16 1012.8 - - - - - - - - -
24/11:30am 25.8 NNW 14 16 1013.2 - - - - - - - - -
24/11:00am 26.2 NNW 13 15 1013.6 - - - - - - - - -
24/10:30am 25.9 NNW 13 15 1014.2 - - - - - - - - -
24/10:00am 26.0 NNW 13 16 1014.5 - - - - - - - - -
24/09:30am 25.9 NNW 13 15 1014.8 - - - - - - - - -
24/09:00am 25.6 NNW 12 14 1014.8 - - - - - - - - -
24/08:30am 25.3 NNW 12 14 1014.6 - - - - - - - - -
24/08:00am 25.1 NNW 12 14 1014.6 - - - - - - - - -
24/07:30am 24.6 NNW 12 14 1014.6 - - - - - - - - -
24/07:00am 24.1 NNW 13 15 1014.2 - - - - - - - - -
24/06:30am 23.5 NNW 12 14 1014.1 - - - - - - - - -
24/06:00am 23.3 N 10 11 1013.9 - - - - - - - - -
24/05:30am 23.1 N 9 11 1013.8 - - - - - - - - -
24/05:00am 23.2 NNW 10 11 1013.4 - - - - - - - - -
24/04:30am 23.0 NW 8 9 1013.3 - - - - - - - - -
24/04:00am 23.2 N 10 11 1013.1 - - - - - - - - -
24/03:30am 23.1 NW 11 13 1013.0 - - - - - - - - -
24/03:00am 23.1 NW 12 14 1013.0 - - - - - - - - -
24/02:30am 22.8 NNW 13 15 1012.8 - - - - - - - - -
24/02:00am 22.8 NNW 10 11 1013.1 - - - - - - - - -
24/01:30am 22.5 NNW 9 11 1013.5 - - - - - - - - -
24/01:00am 22.6 N 8 10 1013.9 - - - - - - - - -
24/12:30am 22.4 NNW 6 9 1014.3 - - - - - - - - -
24/12:00am 21.9 W 5 6 1014.5 - - - - - - - - -
 
Date/Time
EST
Temp
°C
Wind Pressure Rain since
9am
mm
Weather Cloud Vis
km
Sea
Height
m
Swell
Dir  Spd
kts
Gust
kts
hPa Trend Height
m
Period
s
Dir
23/11:30pm 21.8 N 4 5 1014.8 - - - - - - - - -
23/11:00pm 22.2 NE 4 6 1014.6 - - - - - - - - -
23/10:30pm 22.0 ENE 5 7 1014.6 - - - - - - - - -
23/10:00pm 22.1 NNE 6 8 1014.5 - - - - - - - - -
23/09:30pm 22.1 NE 7 9 1014.2 - - - - - - - - -
23/09:00pm 21.9 ENE 7 9 1014.3 - - - - - - - - -
23/08:30pm 22.0 ENE 6 8 1014.2 - - - - - - - - -
23/08:00pm 22.4 E 6 8 1014.2 - - - - - - - - -
23/07:30pm 22.3 E 7 9 1014.2 - - - - - - - - -
23/07:00pm 22.3 E 6 8 1014.0 - - - - - - - - -
23/06:30pm 22.0 N 7 8 1013.7 - - - - - - - - -
23/06:00pm 22.3 ENE 8 9 1013.5 - - - - - - - - -
23/05:30pm 22.4 E 7 9 1013.2 - - - - - - - - -
23/05:00pm 22.4 E 6 8 1013.2 - - - - - - - - -
23/04:30pm 22.5 E 6 8 1012.8 - - - - - - - - -
23/04:00pm 22.7 E 7 8 1012.7 - - - - - - - - -
23/03:30pm 23.0 E 7 9 1012.7 - - - - - - - - -
23/03:00pm 22.9 E 7 10 1012.8 - - - - - - - - -
23/02:30pm 23.1 E 8 11 1013.3 - - - - - - - - -
23/02:00pm 23.4 E 7 9 1013.5 - - - - - - - - -
23/01:30pm 23.4 ENE 6 8 1013.7 - - - - - - - - -
23/01:00pm 23.6 ENE 6 7 1014.0 - - - - - - - - -
23/12:30pm 23.6 ENE 5 7 1014.3 - - - - - - - - -
23/12:00pm 23.7 E 6 8 1014.5 - - - - - - - - -
23/11:30am 23.3 ESE 7 9 1014.8 - - - - - - - - -
23/11:00am 23.7 ESE 6 8 1015.3 - - - - - - - - -
23/10:30am 23.9 ESE 6 8 1015.7 - - - - - - - - -
23/10:00am 23.6 SSE 6 7 1015.9 - - - - - - - - -
23/09:30am 23.5 SSE 6 8 1016.2 - - - - - - - - -
23/09:00am 23.3 S 7 9 1016.2 - - - - - - - - -
23/08:30am 23.2 S 6 7 1016.0 - - - - - - - - -
23/08:00am 23.0 S 6 7 1015.9 - - - - - - - - -
23/07:30am 22.5 S 6 9 1015.5 - - - - - - - - -
23/07:00am 22.5 S 5 6 1015.0 - - - - - - - - -
23/06:30am 22.0 S 7 9 1014.6 - - - - - - - - -
23/06:00am 21.9 SSW 7 10 1014.5 - - - - - - - - -
23/05:30am 21.8 S 8 9 1014.2 - - - - - - - - -
23/05:00am 21.8 S 8 11 1014.1 - - - - - - - - -
23/04:30am 21.9 S 6 9 1013.7 - - - - - - - - -
23/04:00am 21.9 S 7 8 1013.6 - - - - - - - - -
23/03:30am 21.3 S 6 10 1013.7 - - - - - - - - -
23/03:00am 21.8 SSW 5 7 1013.6 - - - - - - - - -
23/02:30am 21.4 SW 7 8 1013.9 - - - - - - - - -
23/02:00am 21.3 SSW 6 7 1013.5 - - - - - - - - -
23/01:30am 20.6 S 5 7 1013.5 - - - - - - - - -
23/01:00am 21.3 S 2 5 1013.4 - - - - - - - - -
23/12:30am 22.5 SSW 12 14 1014.5 - - - - - - - - -

Other Formats:

Comma delimited format used in spreadsheet applications
http://www.bom.gov.au/fwo/IDQ60701/IDQ60701.94394.axf

JavaScript Object Notation format (JSON) in row-major order
http://www.bom.gov.au/fwo/IDQ60701/IDQ60701.94394.json